createdAt,value
2022-09-29T00:02:21.407Z,15.90
2022-09-29T00:05:23.805Z,6.50
2022-09-29T00:08:28.679Z,5.50
2022-09-29T00:11:31.658Z,9.13
2022-09-29T00:14:33.696Z,8.02
2022-09-29T00:17:35.933Z,6.40
2022-09-29T00:20:41.320Z,4.35
2022-09-29T00:23:43.456Z,3.40
2022-09-29T00:26:46.924Z,5.97
2022-09-29T00:29:49.096Z,4.60
2022-09-29T00:32:51.231Z,5.00
2022-09-29T00:36:01.557Z,4.80
2022-09-29T00:39:04.150Z,11.40
2022-09-29T00:42:06.276Z,4.57
2022-09-29T00:45:16.398Z,5.45
2022-09-29T00:48:25.727Z,7.13
2022-09-29T00:51:28.902Z,10.68
2022-09-29T00:54:42.410Z,3.75
2022-09-29T00:58:01.180Z,7.00
2022-09-29T01:01:05.272Z,5.30
2022-09-29T01:04:16.017Z,7.45
2022-09-29T01:07:19.328Z,1.88
2022-09-29T01:10:21.628Z,4.65
2022-09-29T01:13:24.964Z,8.63
2022-09-29T01:16:27.131Z,2.33
2022-09-29T01:19:42.074Z,5.28
2022-09-29T01:23:02.855Z,5.55
2022-09-29T01:26:25.097Z,6.07
2022-09-29T01:29:34.813Z,6.13
2022-09-29T01:33:06.381Z,8.95
2022-09-29T01:36:36.132Z,7.25
2022-09-29T01:40:30.958Z,5.40
2022-09-29T01:43:52.245Z,5.57
2022-09-29T01:46:57.649Z,12.23
2022-09-29T01:50:08.735Z,8.98
2022-09-29T01:53:16.831Z,6.07
2022-09-29T01:56:43.502Z,7.18
2022-09-29T01:59:56.086Z,4.03
2022-09-29T02:03:21.648Z,6.82
2022-09-29T02:06:36.710Z,16.05
2022-09-29T02:09:46.248Z,9.65
2022-09-29T02:12:51.739Z,6.07
2022-09-29T02:15:57.575Z,11.15
2022-09-29T02:19:17.255Z,9.88
2022-09-29T02:22:20.310Z,11.43
2022-09-29T02:25:23.893Z,13.63
2022-09-29T02:28:26.067Z,5.47
2022-09-29T02:31:28.517Z,13.23
2022-09-29T02:34:34.753Z,11.80
2022-09-29T02:37:43.460Z,8.85
2022-09-29T02:41:27.138Z,5.57
2022-09-29T02:44:40.751Z,5.63
2022-09-29T02:47:51.992Z,11.25
2022-09-29T02:51:10.676Z,9.85
2022-09-29T02:54:47.349Z,7.05
2022-09-29T02:58:18.216Z,14.80
2022-09-29T03:01:21.840Z,6.32
2022-09-29T03:04:26.983Z,11.90
2022-09-29T03:07:29.121Z,6.32
2022-09-29T03:10:31.186Z,13.40
2022-09-29T03:13:33.248Z,11.80
2022-09-29T03:16:36.186Z,13.63
2022-09-29T03:19:38.411Z,12.15
2022-09-29T03:22:40.487Z,9.75
2022-09-29T03:25:43.215Z,12.50
2022-09-29T03:28:45.324Z,13.63
2022-09-29T03:31:47.529Z,13.00
2022-09-29T03:34:49.693Z,9.00
2022-09-29T03:37:51.807Z,14.32
2022-09-29T03:40:53.952Z,22.55
2022-09-29T03:43:56.096Z,15.60
2022-09-29T03:46:58.203Z,15.45
2022-09-29T03:50:00.246Z,17.63
2022-09-29T03:53:02.250Z,14.23
2022-09-29T03:56:04.827Z,20.63
2022-09-29T03:59:10.728Z,14.02
2022-09-29T04:02:13.140Z,8.95
2022-09-29T04:05:16.015Z,20.50
2022-09-29T04:08:18.166Z,15.63
2022-09-29T04:11:20.254Z,13.60
2022-09-29T04:14:22.367Z,15.38
2022-09-29T04:17:24.360Z,14.32
2022-09-29T04:20:26.959Z,16.10
2022-09-29T04:23:31.706Z,14.07
2022-09-29T04:26:33.931Z,16.55
2022-09-29T04:29:36.074Z,13.93
2022-09-29T04:32:38.307Z,19.92
2022-09-29T04:35:40.443Z,27.60
2022-09-29T04:38:42.510Z,13.77
2022-09-29T04:41:44.949Z,10.32
2022-09-29T04:44:47.697Z,12.43
2022-09-29T04:47:49.720Z,17.20
2022-09-29T04:50:52.825Z,19.50
2022-09-29T04:53:54.934Z,9.60
2022-09-29T04:56:56.972Z,12.75
2022-09-29T04:59:59.024Z,15.38
2022-09-29T05:03:01.201Z,15.02
2022-09-29T05:06:03.515Z,19.48
2022-09-29T05:09:06.668Z,10.93
2022-09-29T05:12:08.737Z,13.82
2022-09-29T05:15:11.115Z,12.93
2022-09-29T05:18:13.090Z,11.68
2022-09-29T05:21:27.620Z,12.48
2022-09-29T05:24:30.538Z,10.70
2022-09-29T05:27:32.653Z,13.30
2022-09-29T05:30:34.681Z,10.50
2022-09-29T05:33:37.561Z,16.23
2022-09-29T05:36:39.667Z,11.30
2022-09-29T05:39:42.118Z,14.40
2022-09-29T05:42:47.972Z,18.87
2022-09-29T05:45:50.318Z,12.52
2022-09-29T05:48:52.511Z,24.52
2022-09-29T05:51:54.666Z,12.88
2022-09-29T05:54:58.109Z,11.57
2022-09-29T05:58:00.306Z,14.93
2022-09-29T06:01:07.064Z,12.23
2022-09-29T06:04:09.168Z,20.48
2022-09-29T06:07:11.208Z,9.82
2022-09-29T06:10:13.282Z,16.17
2022-09-29T06:13:15.277Z,18.45
2022-09-29T06:16:20.324Z,13.30
2022-09-29T06:19:22.520Z,12.20
2022-09-29T06:22:24.986Z,12.13
2022-09-29T06:25:27.141Z,15.88
2022-09-29T06:28:32.898Z,8.35
2022-09-29T06:31:35.117Z,24.05
2022-09-29T06:34:58.712Z,15.27
2022-09-29T06:38:02.969Z,16.42
2022-09-29T06:41:05.570Z,20.45
2022-09-29T06:44:07.927Z,15.65
2022-09-29T06:47:10.918Z,13.85
2022-09-29T06:50:18.232Z,17.80
2022-09-29T06:53:30.957Z,17.77
2022-09-29T06:56:35.942Z,18.17
2022-09-29T06:59:38.127Z,16.92
2022-09-29T07:02:40.164Z,18.77
2022-09-29T07:05:49.153Z,20.17
2022-09-29T07:09:00.177Z,31.33
2022-09-29T07:12:02.407Z,33.42
2022-09-29T07:15:04.675Z,25.83
2022-09-29T07:18:06.880Z,16.50
2022-09-29T07:21:16.201Z,23.02
2022-09-29T07:24:18.988Z,18.65
2022-09-29T07:27:24.315Z,13.25
2022-09-29T07:30:37.106Z,22.98
2022-09-29T07:33:42.182Z,17.67
2022-09-29T07:36:44.304Z,21.17
2022-09-29T07:39:46.390Z,38.72
2022-09-29T07:42:49.389Z,21.55
2022-09-29T07:45:52.370Z,17.10
2022-09-29T07:48:54.703Z,17.20
2022-09-29T07:51:56.896Z,19.67
2022-09-29T07:54:58.979Z,21.63
2022-09-29T07:58:01.875Z,23.70
2022-09-29T08:01:06.836Z,15.52
2022-09-29T08:04:08.931Z,13.43
2022-09-29T08:07:11.502Z,21.83
2022-09-29T08:10:17.690Z,23.52
2022-09-29T08:13:19.999Z,20.38
2022-09-29T08:16:22.221Z,13.30
2022-09-29T08:19:25.750Z,29.00
2022-09-29T08:22:27.829Z,17.73
2022-09-29T08:25:29.951Z,20.15
2022-09-29T08:28:33.701Z,14.68
2022-09-29T08:31:37.383Z,19.75
2022-09-29T08:34:39.544Z,23.50
2022-09-29T08:37:41.828Z,26.42
2022-09-29T08:40:43.864Z,15.10
2022-09-29T08:43:47.853Z,13.77
2022-09-29T08:47:06.186Z,20.33
2022-09-29T08:50:33.612Z,22.55
2022-09-29T08:53:45.684Z,16.48
2022-09-29T08:56:51.980Z,19.45
2022-09-29T08:59:57.889Z,21.02
2022-09-29T09:03:09.541Z,20.88
2022-09-29T09:07:00.632Z,19.92
2022-09-29T09:10:27.129Z,11.52
2022-09-29T09:14:00.127Z,11.27
2022-09-29T09:17:21.074Z,14.18
2022-09-29T09:20:57.412Z,16.63
2022-09-29T09:24:19.166Z,17.75
2022-09-29T09:27:33.595Z,17.55
2022-09-29T09:30:45.361Z,23.65
2022-09-29T09:34:04.861Z,21.20
2022-09-29T09:37:15.010Z,11.30
2022-09-29T09:40:45.601Z,11.85
2022-09-29T09:43:52.955Z,15.05
2022-09-29T09:47:03.554Z,15.07
2022-09-29T09:50:17.174Z,9.73
2022-09-29T09:53:39.417Z,17.63
2022-09-29T09:56:52.571Z,24.83
2022-09-29T10:00:14.771Z,12.48
2022-09-29T10:03:17.062Z,19.75
2022-09-29T10:06:19.170Z,8.50
2022-09-29T10:09:21.420Z,11.15
2022-09-29T10:12:25.073Z,12.43
2022-09-29T10:15:48.304Z,10.18
2022-09-29T10:18:54.454Z,9.27
2022-09-29T10:22:13.489Z,7.80
2022-09-29T10:25:19.770Z,14.70
2022-09-29T10:28:25.716Z,10.60
2022-09-29T10:31:27.749Z,11.13
2022-09-29T10:34:32.633Z,7.38
2022-09-29T10:37:38.245Z,32.30
2022-09-29T10:40:59.490Z,21.33
2022-09-29T10:44:21.409Z,11.18
2022-09-29T10:47:24.404Z,9.10
2022-09-29T10:50:48.075Z,18.98
2022-09-29T10:53:50.218Z,15.40
2022-09-29T10:56:54.019Z,10.38
2022-09-29T10:59:58.417Z,16.95
2022-09-29T11:03:29.194Z,9.43
2022-09-29T11:06:41.676Z,10.07
2022-09-29T11:09:45.955Z,5.28
2022-09-29T11:12:49.329Z,6.15
2022-09-29T11:15:52.052Z,10.52
2022-09-29T11:19:01.590Z,9.52
2022-09-29T11:22:25.816Z,5.63
2022-09-29T11:26:10.672Z,10.85
2022-09-29T11:29:36.058Z,5.07
2022-09-29T11:32:39.156Z,10.93
2022-09-29T11:35:58.547Z,6.32
2022-09-29T11:39:03.851Z,3.35
2022-09-29T11:42:24.663Z,5.43
2022-09-29T11:45:36.106Z,4.03
2022-09-29T11:48:54.431Z,3.67
2022-09-29T11:51:56.565Z,2.05
2022-09-29T11:55:05.680Z,6.10
2022-09-29T11:58:38.660Z,2.83
2022-09-29T12:01:57.218Z,3.17
2022-09-29T12:05:06.105Z,17.38
2022-09-29T12:08:27.210Z,6.88
2022-09-29T12:12:05.258Z,3.17
2022-09-29T12:15:17.766Z,4.20
2022-09-29T12:18:40.594Z,7.43
2022-09-29T12:21:52.667Z,2.03
2022-09-29T12:24:57.396Z,6.88
2022-09-29T12:28:17.111Z,11.35
2022-09-29T12:31:27.852Z,11.30
2022-09-29T12:34:37.429Z,9.68
2022-09-29T12:38:01.308Z,5.80
2022-09-29T12:41:09.268Z,2.53
2022-09-29T12:44:21.542Z,2.35
2022-09-29T12:47:47.774Z,3.00
2022-09-29T12:51:01.400Z,2.22
2022-09-29T12:54:12.505Z,2.10
2022-09-29T12:57:23.199Z,1.73
2022-09-29T13:00:25.681Z,1.88
2022-09-29T13:03:57.012Z,0.75
2022-09-29T13:07:11.452Z,1.02
2022-09-29T13:13:58.116Z,0.93
2022-09-29T13:17:18.542Z,1.73
2022-09-29T13:21:03.027Z,2.38
2022-09-29T13:24:21.922Z,3.40
2022-09-29T13:27:30.351Z,1.75
2022-09-29T13:30:36.213Z,8.38
2022-09-29T13:33:38.924Z,3.47
2022-09-29T13:36:44.247Z,3.53
2022-09-29T13:39:52.314Z,7.10
2022-09-29T13:43:05.271Z,3.03
2022-09-29T13:46:26.173Z,2.30
2022-09-29T13:49:30.606Z,3.58
2022-09-29T13:52:40.781Z,4.63
2022-09-29T13:56:09.255Z,5.10
2022-09-29T13:59:18.089Z,13.82
2022-09-29T14:02:41.442Z,4.20
2022-09-29T14:05:47.192Z,9.73
2022-09-29T14:09:04.465Z,8.52
2022-09-29T14:12:26.747Z,11.15
2022-09-29T14:15:34.238Z,5.68
2022-09-29T14:18:42.446Z,7.50
2022-09-29T14:21:54.309Z,9.07
2022-09-29T14:25:08.506Z,6.53
2022-09-29T14:28:19.428Z,6.88
2022-09-29T14:31:24.515Z,5.13
2022-09-29T14:34:31.628Z,5.45
2022-09-29T14:37:33.890Z,12.20
2022-09-29T14:40:35.968Z,9.50
2022-09-29T14:43:59.245Z,4.82
2022-09-29T14:47:37.928Z,4.88
2022-09-29T14:51:07.170Z,10.43
2022-09-29T14:54:29.631Z,10.27
2022-09-29T14:57:53.804Z,7.80
2022-09-29T15:01:20.607Z,11.38
2022-09-29T15:04:22.882Z,8.23
2022-09-29T15:07:41.206Z,10.23
2022-09-29T15:10:43.377Z,3.47
2022-09-29T15:13:45.482Z,15.25
2022-09-29T15:16:57.688Z,4.50
2022-09-29T15:20:14.704Z,10.20
2022-09-29T15:23:49.070Z,4.68
2022-09-29T15:26:51.242Z,6.07
2022-09-29T15:29:57.838Z,15.77
2022-09-29T15:33:22.349Z,2.70
2022-09-29T15:36:26.884Z,3.22
2022-09-29T15:39:32.141Z,2.30
2022-09-29T15:42:38.613Z,2.70
2022-09-29T15:45:52.479Z,3.58
2022-09-29T15:49:08.308Z,4.40
2022-09-29T15:52:15.188Z,3.72
2022-09-29T15:55:20.016Z,4.72
2022-09-29T15:58:42.910Z,4.75
2022-09-29T16:01:45.107Z,5.38
2022-09-29T16:04:51.259Z,12.32
2022-09-29T16:08:16.153Z,6.90
2022-09-29T16:14:34.453Z,6.43
2022-09-29T16:17:37.231Z,8.75
2022-09-29T16:20:44.086Z,8.52
2022-09-29T16:24:06.059Z,9.88
2022-09-29T16:27:40.954Z,9.95
2022-09-29T16:31:05.228Z,14.93
2022-09-29T16:34:23.869Z,14.57
2022-09-29T16:37:27.067Z,12.63
2022-09-29T16:40:30.809Z,10.25
2022-09-29T16:43:33.553Z,6.13
2022-09-29T16:47:02.622Z,11.40
2022-09-29T16:50:14.410Z,6.82
2022-09-29T16:53:34.421Z,7.57
2022-09-29T16:56:36.872Z,11.40
2022-09-29T16:59:39.090Z,8.30
2022-09-29T17:02:41.572Z,11.98
2022-09-29T17:05:47.912Z,10.48
2022-09-29T17:08:52.399Z,10.95
2022-09-29T17:11:54.719Z,8.75
2022-09-29T17:14:57.288Z,10.15
2022-09-29T17:17:59.338Z,10.98
2022-09-29T17:21:01.636Z,15.32
2022-09-29T17:24:05.443Z,6.20
2022-09-29T17:27:27.317Z,9.95
2022-09-29T17:30:31.233Z,8.70
2022-09-29T17:33:33.538Z,13.13
2022-09-29T17:36:38.682Z,11.38
2022-09-29T17:39:40.780Z,14.80
2022-09-29T17:42:42.865Z,9.38
2022-09-29T17:45:46.043Z,10.85
2022-09-29T17:48:49.209Z,8.63
2022-09-29T17:51:52.327Z,7.75
2022-09-29T17:54:54.410Z,8.70
2022-09-29T17:57:57.741Z,14.68
2022-09-29T18:00:59.833Z,12.48
2022-09-29T18:04:03.510Z,13.52
2022-09-29T18:07:06.524Z,9.02
2022-09-29T18:10:37.595Z,9.48
2022-09-29T18:13:39.921Z,11.73
2022-09-29T18:16:42.112Z,13.82
2022-09-29T18:19:45.108Z,7.40
2022-09-29T18:22:48.505Z,13.95
2022-09-29T18:25:52.935Z,9.52
2022-09-29T18:31:57.270Z,8.15
2022-09-29T18:34:59.925Z,14.65
2022-09-29T18:38:02.930Z,15.20
2022-09-29T18:41:10.429Z,10.35
2022-09-29T18:44:18.126Z,17.23
2022-09-29T18:47:20.264Z,13.15
2022-09-29T18:50:25.054Z,13.02
2022-09-29T18:53:28.093Z,10.07
2022-09-29T18:56:31.136Z,16.33
2022-09-29T18:59:33.921Z,13.98
2022-09-29T19:02:36.269Z,14.77
2022-09-29T19:05:42.169Z,13.35
2022-09-29T19:08:49.445Z,11.77
2022-09-29T19:11:51.759Z,11.90
2022-09-29T19:14:54.314Z,12.63
2022-09-29T19:17:56.925Z,10.10
2022-09-29T19:21:00.732Z,8.75
2022-09-29T19:24:02.841Z,10.80
2022-09-29T19:27:04.938Z,9.95
2022-09-29T19:30:07.876Z,8.30
2022-09-29T19:33:14.187Z,7.82
2022-09-29T19:36:19.418Z,21.95
2022-09-29T19:39:21.645Z,10.82
2022-09-29T19:42:23.971Z,10.52
2022-09-29T19:45:27.597Z,16.90
2022-09-29T19:48:29.661Z,15.50
2022-09-29T19:51:49.784Z,11.57
2022-09-29T19:54:51.968Z,12.00
2022-09-29T19:57:54.212Z,12.50
2022-09-29T20:00:57.702Z,14.23
2022-09-29T20:03:59.761Z,11.13
2022-09-29T20:07:02.982Z,12.05
2022-09-29T20:10:05.394Z,16.23
2022-09-29T20:13:08.579Z,21.80
2022-09-29T20:16:10.788Z,11.82
2022-09-29T20:19:15.746Z,15.75
2022-09-29T20:22:20.187Z,17.45
2022-09-29T20:28:24.315Z,16.42
2022-09-29T20:31:26.698Z,14.68
2022-09-29T20:34:28.931Z,12.05
2022-09-29T20:37:30.957Z,15.98
2022-09-29T20:40:33.355Z,16.25
2022-09-29T20:43:36.004Z,12.05
2022-09-29T20:46:38.566Z,16.98
2022-09-29T20:49:40.780Z,14.93
2022-09-29T20:52:42.875Z,15.75
2022-09-29T20:55:46.606Z,16.48
2022-09-29T20:58:51.485Z,10.88
2022-09-29T21:01:54.267Z,14.48
2022-09-29T21:04:56.619Z,12.18
2022-09-29T21:07:58.620Z,16.13
2022-09-29T21:11:05.534Z,22.52
2022-09-29T21:14:10.424Z,13.07
2022-09-29T21:17:12.600Z,13.45
2022-09-29T21:20:14.688Z,10.60
2022-09-29T21:23:16.874Z,19.17
2022-09-29T21:26:21.002Z,12.98
2022-09-29T21:29:23.189Z,12.80
2022-09-29T21:32:25.200Z,14.88
2022-09-29T21:35:27.387Z,12.55
2022-09-29T21:38:31.460Z,15.52
2022-09-29T21:41:36.268Z,16.60
2022-09-29T21:44:38.288Z,24.55
2022-09-29T21:47:58.799Z,12.63
2022-09-29T21:51:07.660Z,16.08
2022-09-29T21:54:18.948Z,19.30
2022-09-29T21:57:22.099Z,9.68
2022-09-29T22:00:24.328Z,11.63
2022-09-29T22:03:30.469Z,14.10
2022-09-29T22:06:34.411Z,11.23
2022-09-29T22:09:36.600Z,13.15
2022-09-29T22:12:38.732Z,10.02
2022-09-29T22:15:40.922Z,11.13
2022-09-29T22:18:46.468Z,10.13
2022-09-29T22:21:53.941Z,13.43
2022-09-29T22:24:56.612Z,9.13
2022-09-29T22:27:59.291Z,17.05
2022-09-29T22:31:09.801Z,17.23
2022-09-29T22:34:12.360Z,18.50
2022-09-29T22:37:14.610Z,9.80
2022-09-29T22:40:16.980Z,14.80
2022-09-29T22:43:19.062Z,13.02
2022-09-29T22:46:25.556Z,8.57
2022-09-29T22:49:28.635Z,16.23
2022-09-29T22:52:30.800Z,15.18
2022-09-29T22:55:37.197Z,13.70
2022-09-29T22:58:42.004Z,12.90
2022-09-29T23:01:44.083Z,25.48
2022-09-29T23:04:46.279Z,14.57
2022-09-29T23:07:48.381Z,20.13
2022-09-29T23:10:51.756Z,18.08
2022-09-29T23:13:54.090Z,12.65
2022-09-29T23:16:56.151Z,11.82
2022-09-29T23:19:58.561Z,15.85
2022-09-29T23:23:00.896Z,12.23
2022-09-29T23:26:03.109Z,13.80
2022-09-29T23:29:07.748Z,9.93
2022-09-29T23:32:10.068Z,12.25
2022-09-29T23:35:13.136Z,14.07
2022-09-29T23:38:33.854Z,15.48
2022-09-29T23:41:47.583Z,8.52
2022-09-29T23:44:49.612Z,11.93
2022-09-29T23:47:53.465Z,9.88
2022-09-29T23:50:55.681Z,13.65
2022-09-29T23:53:59.267Z,8.68
2022-09-29T23:57:01.495Z,12.53
